Time;durP1;ratioP1;P1;durP2;ratioP2;P2;SDS_P1;SDS_P2;PMS_P1;PMS_P2;Temp;Humidity;BMP_temperature;BMP_pressure;BME280_temperature;BME280_humidity;BME280_pressure;Samples;Min_cycle;Max_cycle;Signal;HPM_P1;HPM_P2
2022/09/20 00:01:05;;;;;;;8.20;2.20;;;;;;;;;;5075562;28;20207;-78
2022/09/20 00:03:34;;;;;;;10.70;2.03;;;;;;;;;;5080466;28;20321;-78
2022/09/20 00:06:03;;;;;;;6.60;1.90;;;;;;;;;;5095480;28;20251;-78
2022/09/20 00:08:31;;;;;;;4.73;2.00;;;;;;;;;;5095071;28;20216;-78
2022/09/20 00:11:05;;;;;;;7.00;1.93;;;;;;;;;;5095683;28;20233;-78
2022/09/20 00:13:34;;;;;;;9.10;2.40;;;;;;;;;;5095277;28;20687;-78
2022/09/20 00:16:05;;;;;;;9.03;2.00;;;;;;;;;;5095435;28;20241;-78
2022/09/20 00:18:34;;;;;;;10.70;2.10;;;;;;;;;;5093516;28;20678;-78
2022/09/20 00:21:02;;;;;;;11.07;2.33;;;;;;;;;;5095423;28;20205;-78
2022/09/20 00:23:31;;;;;;;11.70;2.40;;;;;;;;;;5094967;28;20254;-78
2022/09/20 00:26:00;;;;;;;8.47;2.27;;;;;;;;;;5095422;28;20632;-78
2022/09/20 00:28:30;;;;;;;11.17;2.60;;;;;;;;;;5095343;28;20326;-78
2022/09/20 00:30:59;;;;;;;8.30;2.40;;;;;;;;;;5094846;28;20241;-78
2022/09/20 00:35:06;;;;;;;13.43;2.57;;;;;;;;;;5095008;28;20253;-78
2022/09/20 00:36:15;;;;;;;7.77;2.10;;;;;;;;;;5095033;28;20240;-78
2022/09/20 00:38:44;;;;;;;8.43;2.03;;;;;;;;;;5095241;28;20327;-78
2022/09/20 00:41:12;;;;;;;8.40;2.40;;;;;;;;;;5094694;28;20654;-78
2022/09/20 00:43:43;;;;;;;8.53;2.20;;;;;;;;;;5094433;28;20638;-78
2022/09/20 00:46:19;;;;;;;10.20;2.10;;;;;;;;;;5095161;28;20214;-78
2022/09/20 00:48:48;;;;;;;6.87;2.20;;;;;;;;;;5076280;28;20202;-77
2022/09/20 00:51:18;;;;;;;7.17;2.63;;;;;;;;;;5080057;28;20222;-78
2022/09/20 00:53:49;;;;;;;8.13;2.33;;;;;;;;;;5094154;28;20650;-77
2022/09/20 00:56:19;;;;;;;8.10;2.50;;;;;;;;;;5074717;28;20213;-78
2022/09/20 00:58:51;;;;;;;9.53;2.37;;;;;;;;;;5089209;28;20288;-78
2022/09/20 01:01:20;;;;;;;13.27;2.37;;;;;;;;;;5094566;28;20728;-77
2022/09/20 01:03:48;;;;;;;7.83;2.00;;;;;;;;;;5094489;28;20221;-78
2022/09/20 01:06:17;;;;;;;5.53;2.13;;;;;;;;;;5094308;28;20296;-78
2022/09/20 01:08:48;;;;;;;10.93;2.40;;;;;;;;;;5094392;28;20205;-78
2022/09/20 01:11:16;;;;;;;8.57;2.40;;;;;;;;;;5094963;28;20239;-78
2022/09/20 01:13:44;;;;;;;9.10;2.67;;;;;;;;;;5094752;28;20292;-78
2022/09/20 01:16:16;;;;;;;11.83;3.17;;;;;;;;;;5094118;28;20202;-78
2022/09/20 01:18:45;;;;;;;11.90;2.47;;;;;;;;;;5095129;28;20268;-78
2022/09/20 01:21:14;;;;;;;14.00;2.93;;;;;;;;;;5094128;28;20240;-78
2022/09/20 01:23:47;;;;;;;14.57;2.80;;;;;;;;;;5094322;28;20308;-78
2022/09/20 01:26:30;;;;;;;10.33;2.50;;;;;;;;;;5094324;28;20229;-78
2022/09/20 01:29:03;;;;;;;13.33;2.80;;;;;;;;;;5094808;28;20220;-78
2022/09/20 01:31:34;;;;;;;10.03;2.47;;;;;;;;;;5076675;28;20293;-78
2022/09/20 01:34:04;;;;;;;9.90;2.97;;;;;;;;;;5074139;28;20179;-78
2022/09/20 01:36:34;;;;;;;9.30;2.20;;;;;;;;;;5074834;28;20569;-78
2022/09/20 01:39:08;;;;;;;14.00;2.73;;;;;;;;;;5083570;28;20221;-78
2022/09/20 01:41:38;;;;;;;11.00;2.23;;;;;;;;;;5094662;28;20290;-77
2022/09/20 01:44:13;;;;;;;10.27;2.50;;;;;;;;;;5094420;28;20300;-78
2022/09/20 01:46:43;;;;;;;8.40;2.33;;;;;;;;;;5094458;28;20228;-78
2022/09/20 01:49:34;;;;;;;6.93;2.20;;;;;;;;;;5094302;28;20238;-78
2022/09/20 01:52:20;;;;;;;9.17;2.43;;;;;;;;;;5094077;28;20278;-78
2022/09/20 01:55:10;;;;;;;9.30;2.33;;;;;;;;;;5094703;28;20608;-78
2022/09/20 01:57:58;;;;;;;9.07;2.57;;;;;;;;;;5094144;28;20300;-78
2022/09/20 02:00:30;;;;;;;6.30;2.13;;;;;;;;;;5094473;28;20182;-78
2022/09/20 02:03:18;;;;;;;10.83;2.50;;;;;;;;;;5094506;28;20649;-78
2022/09/20 02:06:05;;;;;;;7.70;2.37;;;;;;;;;;5097801;28;20232;-78
2022/09/20 02:08:40;;;;;;;7.23;2.07;;;;;;;;;;5098332;28;20603;-78
2022/09/20 02:11:13;;;;;;;7.63;2.43;;;;;;;;;;5080156;28;20622;-78
2022/09/20 02:14:00;;;;;;;8.23;2.30;;;;;;;;;;5077347;28;20282;-78
2022/09/20 02:16:38;;;;;;;9.43;2.27;;;;;;;;;;5070455;28;20289;-78
2022/09/20 02:19:22;;;;;;;5.93;2.70;;;;;;;;;;5077430;28;20195;-77
2022/09/20 02:21:53;;;;;;;10.50;2.83;;;;;;;;;;5077791;28;20678;-79
2022/09/20 02:24:24;;;;;;;10.50;3.13;;;;;;;;;;5077578;28;20239;-78
2022/09/20 02:27:00;;;;;;;12.70;3.30;;;;;;;;;;5076965;28;20736;-78
2022/09/20 02:29:33;;;;;;;9.80;2.57;;;;;;;;;;5077034;28;20640;-77
2022/09/20 02:32:09;;;;;;;7.70;3.10;;;;;;;;;;5076636;28;20258;-78
2022/09/20 02:34:45;;;;;;;5.10;2.63;;;;;;;;;;5076915;28;20265;-78
2022/09/20 02:37:24;;;;;;;11.17;2.73;;;;;;;;;;5077347;28;20225;-78
2022/09/20 02:39:59;;;;;;;12.60;4.13;;;;;;;;;;5076814;28;20190;-79
2022/09/20 02:42:30;;;;;;;17.87;4.60;;;;;;;;;;5077142;28;20233;-78
2022/09/20 02:45:01;;;;;;;8.90;2.90;;;;;;;;;;5076979;28;20667;-78
2022/09/20 02:47:34;;;;;;;11.33;2.90;;;;;;;;;;5076612;28;20202;-78
2022/09/20 02:50:14;;;;;;;8.13;3.13;;;;;;;;;;5076484;28;20222;-78
2022/09/20 02:52:45;;;;;;;9.37;4.50;;;;;;;;;;5076986;28;20260;-78
2022/09/20 02:55:18;;;;;;;14.57;4.97;;;;;;;;;;5076663;28;20599;-78
2022/09/20 02:57:51;;;;;;;13.27;5.07;;;;;;;;;;5076125;28;20306;-78
2022/09/20 03:00:21;;;;;;;12.77;3.37;;;;;;;;;;5076308;28;20234;-78
2022/09/20 03:02:56;;;;;;;12.77;3.97;;;;;;;;;;5076510;28;20222;-77
2022/09/20 03:05:26;;;;;;;11.43;3.10;;;;;;;;;;5075833;28;20229;-78
2022/09/20 03:08:02;;;;;;;13.47;3.60;;;;;;;;;;5076364;28;20264;-78
2022/09/20 03:10:34;;;;;;;7.83;3.10;;;;;;;;;;5075845;28;20233;-78
2022/09/20 03:13:11;;;;;;;8.43;3.80;;;;;;;;;;5080768;28;20653;-78
2022/09/20 03:15:43;;;;;;;10.70;3.63;;;;;;;;;;5096667;28;20196;-78
2022/09/20 03:18:16;;;;;;;10.80;3.67;;;;;;;;;;5096613;28;20277;-79
2022/09/20 03:20:48;;;;;;;10.23;3.47;;;;;;;;;;5096448;28;20277;-78
2022/09/20 03:23:23;;;;;;;12.30;3.30;;;;;;;;;;5095842;28;20762;-77
2022/09/20 03:25:55;;;;;;;11.70;3.70;;;;;;;;;;5096341;28;20686;-78
2022/09/20 03:28:31;;;;;;;9.33;3.30;;;;;;;;;;5096460;28;20244;-77
2022/09/20 03:31:04;;;;;;;9.10;3.50;;;;;;;;;;5095818;28;20232;-78
2022/09/20 03:33:40;;;;;;;8.90;3.30;;;;;;;;;;5096293;28;20294;-78
2022/09/20 03:36:18;;;;;;;9.87;4.50;;;;;;;;;;5095812;28;20568;-78
2022/09/20 03:38:59;;;;;;;9.50;4.37;;;;;;;;;;5095443;28;20190;-79
2022/09/20 03:41:47;;;;;;;6.83;3.33;;;;;;;;;;5095894;28;20285;-78
2022/09/20 03:44:25;;;;;;;8.03;4.50;;;;;;;;;;5095166;28;20249;-78
2022/09/20 03:46:59;;;;;;;14.07;5.43;;;;;;;;;;5095490;28;20230;-78
2022/09/20 03:49:42;;;;;;;7.40;2.80;;;;;;;;;;5095146;28;20275;-78
2022/09/20 03:52:15;;;;;;;13.67;3.87;;;;;;;;;;5095670;28;20641;-79
2022/09/20 03:55:04;;;;;;;13.87;4.23;;;;;;;;;;5094897;28;20218;-79
2022/09/20 03:57:39;;;;;;;10.77;3.07;;;;;;;;;;5073428;28;20253;-79
2022/09/20 04:00:15;;;;;;;10.40;3.33;;;;;;;;;;5076060;28;20297;-78
2022/09/20 04:02:54;;;;;;;9.20;3.10;;;;;;;;;;5094744;28;20324;-78
2022/09/20 04:05:28;;;;;;;11.23;3.20;;;;;;;;;;5095096;28;20630;-78
2022/09/20 04:08:03;;;;;;;11.63;3.13;;;;;;;;;;5094387;28;20226;-79
2022/09/20 04:10:36;;;;;;;14.90;4.43;;;;;;;;;;5094445;28;20224;-79
2022/09/20 04:13:19;;;;;;;10.63;3.70;;;;;;;;;;5094810;28;20768;-78
2022/09/20 04:15:54;;;;;;;13.17;2.93;;;;;;;;;;5092443;28;20245;-78
2022/09/20 04:18:26;;;;;;;10.27;3.30;;;;;;;;;;5089531;28;20626;-78
2022/09/20 04:21:00;;;;;;;8.60;3.13;;;;;;;;;;5074342;28;20281;-79
2022/09/20 04:23:33;;;;;;;8.13;2.83;;;;;;;;;;5073891;28;20651;-79
2022/09/20 04:26:02;;;;;;;9.33;4.77;;;;;;;;;;5087168;28;20658;-78
2022/09/20 04:28:35;;;;;;;8.77;2.93;;;;;;;;;;5093870;28;20605;-78
2022/09/20 04:31:06;;;;;;;9.97;3.77;;;;;;;;;;5093744;28;20240;-79
2022/09/20 04:33:37;;;;;;;6.83;2.70;;;;;;;;;;5079908;28;20268;-78
2022/09/20 04:36:29;;;;;;;7.97;3.33;;;;;;;;;;5094236;28;20804;-79
2022/09/20 04:39:06;;;;;;;8.90;3.50;;;;;;;;;;5094099;28;20274;-78
2022/09/20 04:41:48;;;;;;;5.57;2.80;;;;;;;;;;5093500;28;20289;-79
2022/09/20 04:44:39;;;;;;;7.97;3.20;;;;;;;;;;5093751;28;20217;-79
2022/09/20 04:47:26;;;;;;;8.63;3.10;;;;;;;;;;5073706;28;20186;-79
2022/09/20 04:50:15;;;;;;;8.50;3.67;;;;;;;;;;5092781;28;20201;-80
2022/09/20 04:53:13;;;;;;;11.83;3.57;;;;;;;;;;5068574;28;20328;-79
2022/09/20 04:55:49;;;;;;;6.77;2.67;;;;;;;;;;5073708;28;20241;-78
2022/09/20 04:58:36;;;;;;;7.47;2.37;;;;;;;;;;5093650;28;20229;-79
2022/09/20 05:01:19;;;;;;;8.73;2.63;;;;;;;;;;5086098;28;20185;-78
2022/09/20 05:04:00;;;;;;;6.97;2.43;;;;;;;;;;5061760;28;20217;-78
2022/09/20 05:06:44;;;;;;;6.83;2.70;;;;;;;;;;5073849;28;20632;-79
2022/09/20 05:09:23;;;;;;;8.50;3.00;;;;;;;;;;5073787;28;20309;-79
2022/09/20 05:12:03;;;;;;;10.30;3.17;;;;;;;;;;5073338;28;20630;-80
2022/09/20 05:14:40;;;;;;;7.90;2.80;;;;;;;;;;5073654;28;20274;-79
2022/09/20 05:17:31;;;;;;;8.23;3.20;;;;;;;;;;5080457;28;20251;-79
2022/09/20 05:20:18;;;;;;;10.23;2.83;;;;;;;;;;5089244;28;20230;-79
2022/09/20 05:23:10;;;;;;;9.40;2.73;;;;;;;;;;5073348;28;20256;-79
2022/09/20 05:25:48;;;;;;;10.67;3.27;;;;;;;;;;5090326;28;20615;-79
2022/09/20 05:28:20;;;;;;;8.20;3.50;;;;;;;;;;5095548;28;20602;-78
2022/09/20 05:30:50;;;;;;;12.17;3.77;;;;;;;;;;5093585;28;20264;-78
2022/09/20 05:33:22;;;;;;;6.33;2.90;;;;;;;;;;5073018;28;20252;-78
2022/09/20 05:35:55;;;;;;;10.43;2.93;;;;;;;;;;5072718;28;20621;-78
2022/09/20 05:38:29;;;;;;;7.33;2.70;;;;;;;;;;5073089;28;20221;-79
2022/09/20 05:41:06;;;;;;;11.83;3.87;;;;;;;;;;5095347;28;20202;-78
2022/09/20 05:43:35;;;;;;;9.27;3.20;;;;;;;;;;5076823;28;20634;-78
2022/09/20 05:46:11;;;;;;;9.23;3.30;;;;;;;;;;5076797;28;20683;-78
2022/09/20 05:48:41;;;;;;;12.03;4.43;;;;;;;;;;5096642;28;20200;-79
2022/09/20 05:51:14;;;;;;;9.93;3.60;;;;;;;;;;5096624;28;20248;-78
2022/09/20 05:54:01;;;;;;;10.70;4.97;;;;;;;;;;5097244;28;20589;-78
2022/09/20 05:56:46;;;;;;;8.60;4.53;;;;;;;;;;5092984;28;20210;-79
2022/09/20 05:59:23;;;;;;;8.10;3.90;;;;;;;;;;5097196;28;20709;-79
2022/09/20 06:01:59;;;;;;;11.87;3.80;;;;;;;;;;5096846;28;20233;-79
2022/09/20 06:04:30;;;;;;;6.63;2.70;;;;;;;;;;5086824;28;20335;-78
2022/09/20 06:07:04;;;;;;;9.70;5.33;;;;;;;;;;5077194;28;20268;-78
2022/09/20 06:09:45;;;;;;;12.57;4.47;;;;;;;;;;5082181;28;20292;-79
2022/09/20 06:12:20;;;;;;;9.53;4.00;;;;;;;;;;5096401;28;20697;-79
2022/09/20 06:14:52;;;;;;;6.57;2.97;;;;;;;;;;5097100;28;20217;-78
2022/09/20 06:17:25;;;;;;;7.67;2.60;;;;;;;;;;5098130;28;20292;-78
2022/09/20 06:20:00;;;;;;;7.87;2.90;;;;;;;;;;5117566;28;20219;-79
2022/09/20 06:22:30;;;;;;;6.60;2.57;;;;;;;;;;5104075;28;20248;-79
2022/09/20 06:25:02;;;;;;;6.40;2.30;;;;;;;;;;5096860;28;20915;-78
2022/09/20 06:27:34;;;;;;;7.37;2.80;;;;;;;;;;5096558;28;20209;-79
2022/09/20 06:30:05;;;;;;;7.67;2.40;;;;;;;;;;5096774;28;20205;-79
2022/09/20 06:32:34;;;;;;;6.40;2.60;;;;;;;;;;5106808;28;20303;-78
2022/09/20 06:35:03;;;;;;;6.07;2.70;;;;;;;;;;5117216;28;20261;-78
2022/09/20 06:43:19;;;;;;;8.77;2.77;;;;;;;;;;5096566;28;20746;-78
2022/09/20 06:45:47;;;;;;;7.03;2.30;;;;;;;;;;5096380;28;20309;-77
2022/09/20 06:48:18;;;;;;;6.90;2.53;;;;;;;;;;5096520;28;20212;-78
2022/09/20 06:50:46;;;;;;;8.93;2.67;;;;;;;;;;5096055;28;20231;-79
2022/09/20 06:53:16;;;;;;;10.23;2.87;;;;;;;;;;5096327;28;20253;-78
2022/09/20 06:55:45;;;;;;;9.23;2.53;;;;;;;;;;5083359;28;20240;-79
2022/09/20 06:58:14;;;;;;;7.70;2.73;;;;;;;;;;5076344;28;20187;-78
2022/09/20 07:00:44;;;;;;;11.03;3.00;;;;;;;;;;5083091;28;20194;-79
2022/09/20 07:03:12;;;;;;;5.10;2.67;;;;;;;;;;5096037;28;20635;-79
2022/09/20 07:05:41;;;;;;;7.00;3.10;;;;;;;;;;5095920;28;20629;-78
2022/09/20 07:08:09;;;;;;;7.53;3.20;;;;;;;;;;5096148;28;20774;-78
2022/09/20 07:10:38;;;;;;;6.67;3.77;;;;;;;;;;5096179;28;20237;-78
2022/09/20 07:13:06;;;;;;;7.23;2.90;;;;;;;;;;5094985;28;20222;-78
2022/09/20 07:15:35;;;;;;;7.67;2.57;;;;;;;;;;5082823;28;20610;-78
2022/09/20 07:18:05;;;;;;;10.60;2.90;;;;;;;;;;5095697;28;20213;-78
2022/09/20 07:20:33;;;;;;;7.00;3.17;;;;;;;;;;5081101;28;20618;-78
2022/09/20 07:23:02;;;;;;;9.03;3.90;;;;;;;;;;5095937;28;20221;-78
2022/09/20 07:25:31;;;;;;;7.97;3.27;;;;;;;;;;5095648;28;20599;-78
2022/09/20 07:27:59;;;;;;;6.83;2.87;;;;;;;;;;5086593;28;20203;-78
2022/09/20 07:30:28;;;;;;;8.70;3.20;;;;;;;;;;5097338;28;20228;-78
2022/09/20 07:32:56;;;;;;;8.20;3.60;;;;;;;;;;5095032;28;20316;-78
2022/09/20 07:35:26;;;;;;;7.17;3.03;;;;;;;;;;5091844;28;20226;-78
2022/09/20 07:37:58;;;;;;;9.80;3.07;;;;;;;;;;5075291;28;20285;-78
2022/09/20 07:40:26;;;;;;;8.03;3.30;;;;;;;;;;5075001;28;20297;-78
2022/09/20 07:42:57;;;;;;;11.20;3.23;;;;;;;;;;5075260;28;20662;-78
2022/09/20 07:45:26;;;;;;;8.70;3.30;;;;;;;;;;5075067;28;20195;-78
2022/09/20 07:47:54;;;;;;;6.63;3.37;;;;;;;;;;5088651;28;20579;-78
2022/09/20 07:50:23;;;;;;;10.63;3.30;;;;;;;;;;5095380;28;20619;-78
2022/09/20 07:52:56;;;;;;;9.57;4.17;;;;;;;;;;5094980;28;20304;-79
2022/09/20 07:55:25;;;;;;;10.70;4.30;;;;;;;;;;5095241;28;20238;-79
2022/09/20 07:57:54;;;;;;;6.73;3.53;;;;;;;;;;5097499;28;20216;-78
2022/09/20 08:00:22;;;;;;;8.77;3.80;;;;;;;;;;5110567;28;20197;-77
2022/09/20 08:02:59;;;;;;;10.40;4.70;;;;;;;;;;5093847;28;20249;-78
2022/09/20 08:05:27;;;;;;;10.10;3.53;;;;;;;;;;5077363;28;20210;-78
2022/09/20 08:07:58;;;;;;;9.80;4.73;;;;;;;;;;5074830;28;20759;-78
2022/09/20 08:10:27;;;;;;;8.63;4.33;;;;;;;;;;5092676;28;20204;-79
2022/09/20 08:12:55;;;;;;;7.97;3.20;;;;;;;;;;5094504;28;20271;-78
2022/09/20 08:15:44;;;;;;;11.47;3.90;;;;;;;;;;5089575;28;20202;-78
2022/09/20 08:18:13;;;;;;;8.37;4.97;;;;;;;;;;5089964;28;20206;-79
2022/09/20 08:20:41;;;;;;;9.20;4.33;;;;;;;;;;5094718;28;20581;-78
2022/09/20 08:23:11;;;;;;;6.60;4.37;;;;;;;;;;5094871;28;20257;-79
2022/09/20 08:25:51;;;;;;;10.87;3.40;;;;;;;;;;5094321;28;20331;-78
2022/09/20 08:28:19;;;;;;;8.13;3.57;;;;;;;;;;5077560;28;20230;-79
2022/09/20 08:30:48;;;;;;;8.83;3.33;;;;;;;;;;5074572;28;20252;-78
2022/09/20 08:33:16;;;;;;;11.73;3.30;;;;;;;;;;5091272;28;20257;-78
2022/09/20 08:35:44;;;;;;;5.70;2.93;;;;;;;;;;5094774;28;20260;-78
2022/09/20 08:38:14;;;;;;;9.50;2.87;;;;;;;;;;5080281;28;20210;-78
2022/09/20 08:41:04;;;;;;;8.27;3.70;;;;;;;;;;5088057;28;20305;-78
2022/09/20 08:43:35;;;;;;;5.60;3.03;;;;;;;;;;5094260;28;20230;-78
2022/09/20 08:46:05;;;;;;;8.00;4.53;;;;;;;;;;5094145;28;20224;-78
2022/09/20 08:48:34;;;;;;;5.77;3.07;;;;;;;;;;5094544;28;20270;-78
2022/09/20 08:51:05;;;;;;;7.40;3.17;;;;;;;;;;5090268;28;20303;-78
2022/09/20 08:53:35;;;;;;;5.13;2.63;;;;;;;;;;5094102;28;20282;-78
2022/09/20 08:56:03;;;;;;;8.07;3.03;;;;;;;;;;5075733;28;20241;-79
2022/09/20 08:58:32;;;;;;;7.17;2.70;;;;;;;;;;5093444;28;20193;-78
2022/09/20 09:01:00;;;;;;;7.67;2.40;;;;;;;;;;5094436;28;20236;-78
2022/09/20 09:03:29;;;;;;;6.13;2.80;;;;;;;;;;5093929;28;20221;-78
2022/09/20 09:05:58;;;;;;;9.23;2.67;;;;;;;;;;5081671;28;20300;-77
2022/09/20 09:08:29;;;;;;;7.03;2.50;;;;;;;;;;5082738;28;20626;-78
2022/09/20 09:11:00;;;;;;;9.33;2.90;;;;;;;;;;5099005;28;20285;-78
2022/09/20 09:13:32;;;;;;;8.03;2.57;;;;;;;;;;5088758;28;20247;-79
2022/09/20 09:16:03;;;;;;;7.37;2.40;;;;;;;;;;5097746;28;20190;-78
2022/09/20 09:18:37;;;;;;;6.33;2.10;;;;;;;;;;5097698;28;20246;-78
2022/09/20 09:21:08;;;;;;;4.90;2.33;;;;;;;;;;5097818;28;20221;-78
2022/09/20 09:23:40;;;;;;;8.27;2.10;;;;;;;;;;5098350;28;20671;-76
2022/09/20 09:26:17;;;;;;;4.93;2.40;;;;;;;;;;5098038;28;20209;-78
2022/09/20 09:28:47;;;;;;;5.07;1.90;;;;;;;;;;5078203;28;20210;-78
2022/09/20 09:31:24;;;;;;;4.67;2.00;;;;;;;;;;5077168;28;20210;-79
2022/09/20 09:33:55;;;;;;;6.97;2.20;;;;;;;;;;5077328;28;20632;-78
2022/09/20 09:36:25;;;;;;;6.67;2.00;;;;;;;;;;5076726;28;20198;-79
2022/09/20 09:39:10;;;;;;;5.77;2.47;;;;;;;;;;5077074;28;20214;-76
2022/09/20 09:41:42;;;;;;;5.90;2.37;;;;;;;;;;5090559;28;20260;-77
2022/09/20 09:44:19;;;;;;;5.80;2.77;;;;;;;;;;5077053;28;20207;-79
2022/09/20 09:46:49;;;;;;;8.67;2.43;;;;;;;;;;5088227;28;20716;-79
2022/09/20 09:49:18;;;;;;;6.30;3.00;;;;;;;;;;5097213;28;20625;-78
2022/09/20 09:52:04;;;;;;;8.40;3.33;;;;;;;;;;5097450;28;20218;-79
2022/09/20 09:54:35;;;;;;;7.10;3.10;;;;;;;;;;5108135;28;20240;-80
2022/09/20 09:57:19;;;;;;;9.90;3.10;;;;;;;;;;5113949;28;20245;-79
2022/09/20 09:59:53;;;;;;;7.90;3.83;;;;;;;;;;5097342;28;20225;-79
2022/09/20 10:02:30;;;;;;;6.73;2.60;;;;;;;;;;5098470;28;20221;-79
2022/09/20 10:05:01;;;;;;;8.20;2.60;;;;;;;;;;5097404;28;20201;-79
2022/09/20 10:07:33;;;;;;;6.57;2.40;;;;;;;;;;5099922;28;20209;-79
2022/09/20 10:10:06;;;;;;;6.93;2.33;;;;;;;;;;5097171;28;20217;-79
2022/09/20 10:12:47;;;;;;;5.47;2.40;;;;;;;;;;5096610;28;20768;-79
2022/09/20 10:15:21;;;;;;;4.33;2.43;;;;;;;;;;5095273;28;20293;-80
2022/09/20 10:17:52;;;;;;;4.67;2.30;;;;;;;;;;5089067;28;20226;-80
2022/09/20 10:20:26;;;;;;;5.80;2.47;;;;;;;;;;5096100;28;20250;-80
2022/09/20 10:23:01;;;;;;;4.30;2.57;;;;;;;;;;5095849;28;20222;-80
2022/09/20 10:25:53;;;;;;;6.83;2.83;;;;;;;;;;5095224;28;20205;-80
2022/09/20 10:28:31;;;;;;;6.30;2.83;;;;;;;;;;5084286;28;20257;-79
2022/09/20 10:31:05;;;;;;;6.53;2.97;;;;;;;;;;5075271;28;20221;-79
2022/09/20 10:33:36;;;;;;;8.63;3.23;;;;;;;;;;5094168;28;20592;-79
2022/09/20 10:36:11;;;;;;;7.00;3.53;;;;;;;;;;5095930;28;20213;-80
2022/09/20 10:38:42;;;;;;;7.40;3.60;;;;;;;;;;5114702;28;20697;-79
2022/09/20 10:44:17;;;;;;;8.37;3.77;;;;;;;;;;5104864;28;20233;-79
2022/09/20 10:46:51;;;;;;;7.80;2.97;;;;;;;;;;5089508;28;20628;-79
2022/09/20 10:49:28;;;;;;;7.27;2.97;;;;;;;;;;5095497;28;20209;-79
2022/09/20 10:52:14;;;;;;;5.70;3.40;;;;;;;;;;5087580;28;20746;-78
2022/09/20 10:54:51;;;;;;;6.40;3.20;;;;;;;;;;5093329;28;20228;-79
2022/09/20 10:57:25;;;;;;;7.60;2.80;;;;;;;;;;5082207;28;20316;-80
2022/09/20 10:59:58;;;;;;;5.93;2.70;;;;;;;;;;5084340;28;20277;-80
2022/09/20 11:02:41;;;;;;;5.67;2.67;;;;;;;;;;5093405;28;20740;-80
2022/09/20 11:05:19;;;;;;;4.50;2.20;;;;;;;;;;5091818;28;20202;-79
2022/09/20 11:07:52;;;;;;;4.00;2.33;;;;;;;;;;5080041;28;20631;-79
2022/09/20 11:10:23;;;;;;;5.53;2.63;;;;;;;;;;5087251;28;20290;-80
2022/09/20 11:12:54;;;;;;;7.10;2.70;;;;;;;;;;5094571;28;20217;-80
2022/09/20 11:15:26;;;;;;;7.63;2.90;;;;;;;;;;5095348;28;20696;-81
2022/09/20 11:17:59;;;;;;;4.63;2.37;;;;;;;;;;5094725;28;20289;-80
2022/09/20 11:20:28;;;;;;;5.43;2.60;;;;;;;;;;5094888;28;20239;-79
2022/09/20 11:22:58;;;;;;;6.53;2.60;;;;;;;;;;5093312;28;20217;-81
2022/09/20 11:25:31;;;;;;;6.13;1.92;;;;;;;;;;5095073;28;20623;-80
2022/09/20 11:28:03;;;;;;;4.30;2.05;;;;;;;;;;5094138;28;20207;-80
2022/09/20 11:30:34;;;;;;;4.60;1.55;;;;;;;;;;5092034;28;20305;-80
2022/09/20 11:33:06;;;;;;;4.55;1.50;;;;;;;;;;5094700;28;20304;-79
2022/09/20 11:35:39;;;;;;;3.38;1.48;;;;;;;;;;5093772;28;20288;-79
2022/09/20 11:38:12;;;;;;;3.17;1.50;;;;;;;;;;5079010;28;20217;-79
2022/09/20 11:40:43;;;;;;;5.45;1.77;;;;;;;;;;5097709;28;20707;-79
2022/09/20 11:43:14;;;;;;;2.90;1.30;;;;;;;;;;5106125;28;20252;-80
2022/09/20 11:45:46;;;;;;;3.85;1.17;;;;;;;;;;5095755;28;20190;-79
2022/09/20 11:48:19;;;;;;;2.95;1.20;;;;;;;;;;5093689;28;20283;-79
2022/09/20 11:50:56;;;;;;;2.75;1.00;;;;;;;;;;5094995;28;20197;-79
2022/09/20 11:53:36;;;;;;;2.33;1.08;;;;;;;;;;5094610;28;20229;-76
2022/09/20 11:56:08;;;;;;;1.88;0.80;;;;;;;;;;5086840;28;20675;-76
2022/09/20 11:58:47;;;;;;;1.90;1.20;;;;;;;;;;5074031;28;20710;-76
2022/09/20 12:01:24;;;;;;;1.98;0.70;;;;;;;;;;5073170;28;20187;-77
2022/09/20 12:03:56;;;;;;;2.60;0.95;;;;;;;;;;5073482;28;20214;-77
2022/09/20 12:06:45;;;;;;;2.70;0.70;;;;;;;;;;5074546;28;20234;-77
2022/09/20 12:09:23;;;;;;;2.50;0.90;;;;;;;;;;5088002;28;20232;-77
2022/09/20 12:11:52;;;;;;;0.75;0.70;;;;;;;;;;5092405;28;20225;-77
2022/09/20 12:14:23;;;;;;;2.15;0.75;;;;;;;;;;5093933;28;20202;-76
2022/09/20 12:16:53;;;;;;;3.60;0.93;;;;;;;;;;5094204;28;20624;-77
2022/09/20 12:19:37;;;;;;;1.92;0.77;;;;;;;;;;5084766;28;20191;-77
2022/09/20 12:22:30;;;;;;;1.27;0.80;;;;;;;;;;5073689;28;20703;-76
2022/09/20 12:25:25;;;;;;;1.77;0.83;;;;;;;;;;5078918;28;20190;-76
2022/09/20 12:27:57;;;;;;;3.37;1.00;;;;;;;;;;5049498;28;20289;-76
2022/09/20 12:30:25;;;;;;;2.17;1.00;;;;;;;;;;5073037;28;20289;-77
2022/09/20 12:32:59;;;;;;;3.63;1.00;;;;;;;;;;5073888;28;20254;-76
2022/09/20 12:35:58;;;;;;;2.97;1.10;;;;;;;;;;5073226;28;20233;-76
2022/09/20 12:38:30;;;;;;;1.75;0.90;;;;;;;;;;5073692;28;20193;-76
2022/09/20 12:40:59;;;;;;;2.17;0.77;;;;;;;;;;5073748;28;20232;-76
2022/09/20 12:43:28;;;;;;;2.85;0.90;;;;;;;;;;5073696;28;20691;-76
2022/09/20 12:45:57;;;;;;;2.60;1.05;;;;;;;;;;5076233;28;20544;-76
2022/09/20 12:48:37;;;;;;;2.30;0.90;;;;;;;;;;5089194;28;20217;-76
2022/09/20 12:54:05;;;;;;;3.13;0.90;;;;;;;;;;5073218;28;20249;-76
2022/09/20 12:56:35;;;;;;;1.40;0.80;;;;;;;;;;5100910;28;20250;-76
2022/09/20 12:59:06;;;;;;;1.73;1.00;;;;;;;;;;5113826;28;20586;-76
2022/09/20 13:01:41;;;;;;;1.63;0.87;;;;;;;;;;5100785;28;20605;-77
2022/09/20 13:04:29;;;;;;;3.93;0.90;;;;;;;;;;5088815;28;20194;-76
2022/09/20 13:07:13;;;;;;;2.73;1.10;;;;;;;;;;5083714;28;20262;-76
2022/09/20 13:09:42;;;;;;;0.93;0.80;;;;;;;;;;5070779;28;20305;-76
2022/09/20 13:12:11;;;;;;;1.27;1.07;;;;;;;;;;5088731;28;20651;-76
2022/09/20 13:14:39;;;;;;;3.30;1.23;;;;;;;;;;5091006;28;20281;-77
2022/09/20 13:17:16;;;;;;;3.20;1.17;;;;;;;;;;5090361;28;20284;-76
2022/09/20 13:19:46;;;;;;;2.50;1.10;;;;;;;;;;5075226;28;20222;-76
2022/09/20 13:22:18;;;;;;;1.87;1.10;;;;;;;;;;5093691;28;20694;-76
2022/09/20 13:24:49;;;;;;;2.60;1.10;;;;;;;;;;5105304;28;20992;-76
2022/09/20 13:27:21;;;;;;;2.33;0.93;;;;;;;;;;5087499;28;20206;-75
2022/09/20 13:29:52;;;;;;;1.33;0.97;;;;;;;;;;5087677;28;20214;-76
2022/09/20 13:32:23;;;;;;;2.80;1.10;;;;;;;;;;5089357;28;20228;-76
2022/09/20 13:35:05;;;;;;;2.27;1.10;;;;;;;;;;5076152;28;20198;-75
2022/09/20 13:37:34;;;;;;;2.37;0.90;;;;;;;;;;5077777;28;20281;-76
2022/09/20 13:40:05;;;;;;;2.43;1.00;;;;;;;;;;5098171;28;20225;-77
2022/09/20 13:42:35;;;;;;;2.07;1.20;;;;;;;;;;5097583;28;20222;-76
2022/09/20 13:45:05;;;;;;;2.83;1.20;;;;;;;;;;5090634;28;20646;-77
2022/09/20 13:47:34;;;;;;;3.57;1.20;;;;;;;;;;5091474;28;20690;-77
2022/09/20 13:50:03;;;;;;;2.10;1.23;;;;;;;;;;5090862;28;20274;-76
2022/09/20 13:52:32;;;;;;;2.40;1.20;;;;;;;;;;5090472;28;20308;-76
2022/09/20 13:55:21;;;;;;;1.27;0.80;;;;;;;;;;5091269;28;20297;-76
2022/09/20 13:57:51;;;;;;;2.00;0.93;;;;;;;;;;5084098;28;20253;-76
2022/09/20 14:00:20;;;;;;;0.70;0.70;;;;;;;;;;5075187;28;20205;-76
2022/09/20 14:02:49;;;;;;;1.60;0.70;;;;;;;;;;5079032;28;20209;-76
2022/09/20 14:05:18;;;;;;;0.77;0.70;;;;;;;;;;5083885;28;20234;-77
2022/09/20 14:07:48;;;;;;;1.57;0.90;;;;;;;;;;5088219;28;20647;-78
2022/09/20 14:10:31;;;;;;;2.60;0.87;;;;;;;;;;5091796;28;20313;-76
2022/09/20 14:13:01;;;;;;;1.47;0.70;;;;;;;;;;5092875;28;20230;-76
2022/09/20 14:15:33;;;;;;;2.23;0.90;;;;;;;;;;5094051;28;20222;-76
2022/09/20 14:18:03;;;;;;;2.63;0.70;;;;;;;;;;5095771;28;20185;-75
2022/09/20 14:20:32;;;;;;;2.43;0.90;;;;;;;;;;5091934;28;20226;-75
2022/09/20 14:23:01;;;;;;;2.40;0.63;;;;;;;;;;5092759;28;20249;-76
2022/09/20 14:25:32;;;;;;;3.57;0.90;;;;;;;;;;5096766;28;20244;-76
2022/09/20 14:28:17;;;;;;;3.30;0.80;;;;;;;;;;5096284;28;20229;-77
2022/09/20 14:30:47;;;;;;;3.70;0.90;;;;;;;;;;5076796;28;20226;-76
2022/09/20 14:33:16;;;;;;;1.30;0.87;;;;;;;;;;5075843;28;20249;-76
2022/09/20 14:35:49;;;;;;;1.67;1.00;;;;;;;;;;5087267;28;20626;-76
2022/09/20 14:38:19;;;;;;;2.37;1.00;;;;;;;;;;5095846;28;20198;-76
2022/09/20 14:40:48;;;;;;;2.00;0.90;;;;;;;;;;5096170;28;20293;-77
2022/09/20 14:43:24;;;;;;;2.20;1.30;;;;;;;;;;5095282;28;20221;-76
2022/09/20 14:45:54;;;;;;;5.10;1.33;;;;;;;;;;5093569;28;20337;-77
2022/09/20 14:48:34;;;;;;;3.53;1.70;;;;;;;;;;5091988;28;20209;-77
2022/09/20 14:51:10;;;;;;;2.97;1.60;;;;;;;;;;5090799;28;20305;-77
2022/09/20 14:53:39;;;;;;;3.37;1.47;;;;;;;;;;5075336;28;20571;-77
2022/09/20 14:56:09;;;;;;;3.77;1.30;;;;;;;;;;5075569;28;20233;-76
2022/09/20 14:58:56;;;;;;;2.67;1.43;;;;;;;;;;5076000;28;20727;-77
2022/09/20 15:01:26;;;;;;;3.47;1.33;;;;;;;;;;5095403;28;20639;-77
2022/09/20 15:03:55;;;;;;;3.67;1.40;;;;;;;;;;5095753;28;20232;-77
2022/09/20 15:06:24;;;;;;;2.47;1.50;;;;;;;;;;5075563;28;20252;-77
2022/09/20 15:08:52;;;;;;;3.80;1.60;;;;;;;;;;5075373;28;20629;-77
2022/09/20 15:11:21;;;;;;;3.67;1.40;;;;;;;;;;5074963;28;20280;-76
2022/09/20 15:13:49;;;;;;;2.53;1.40;;;;;;;;;;5074723;28;20656;-76
2022/09/20 15:16:20;;;;;;;3.73;1.70;;;;;;;;;;5079802;28;20285;-76
2022/09/20 15:18:49;;;;;;;4.00;1.40;;;;;;;;;;5093719;28;20277;-76
2022/09/20 15:21:18;;;;;;;2.73;1.50;;;;;;;;;;5095017;28;20681;-77
2022/09/20 15:23:47;;;;;;;3.03;1.50;;;;;;;;;;5107104;28;20593;-76
2022/09/20 15:26:16;;;;;;;4.07;1.50;;;;;;;;;;5100172;28;20632;-76
2022/09/20 15:28:44;;;;;;;3.47;1.77;;;;;;;;;;5093727;28;20244;-75
2022/09/20 15:31:14;;;;;;;4.70;1.57;;;;;;;;;;5094851;28;20729;-77